Time;durP1;ratioP1;P1;durP2;ratioP2;P2;SDS_P1;SDS_P2;PMS_P1;PMS_P2;Temp;Humidity;BMP_temperature;BMP_pressure;BME280_temperature;BME280_humidity;BME280_pressure;Samples;Min_cycle;Max_cycle;Signal;HPM_P1;HPM_P2
2023/12/15 00:00:45;;;;;;;36.45;15.57;;;;;;;6.23;100.00;102772.72;6078166;19;20014;-68
2023/12/15 00:02:47;;;;;;;34.33;15.23;;;;;;;6.27;100.00;102778.88;6081600;19;20006;-69
2023/12/15 00:04:52;;;;;;;34.05;14.45;;;;;;;6.25;100.00;102777.97;6081232;19;20015;-71
2023/12/15 00:07:00;;;;;;;36.92;15.38;;;;;;;6.24;100.00;102776.22;6081817;19;20038;-69
2023/12/15 00:09:05;;;;;;;31.50;14.70;;;;;;;6.25;100.00;102778.84;6069509;19;21934;-70
2023/12/15 00:11:10;;;;;;;41.88;16.98;;;;;;;6.27;100.00;102778.88;6080371;19;20019;-69
2023/12/15 00:13:12;;;;;;;34.40;16.83;;;;;;;6.25;100.00;102775.38;6082818;19;20580;-71
2023/12/15 00:15:18;;;;;;;32.28;15.48;;;;;;;6.27;100.00;102784.09;6080944;19;20636;-69
2023/12/15 00:17:23;;;;;;;34.67;16.05;;;;;;;6.26;100.00;102790.16;6083186;19;20035;-70
2023/12/15 00:19:27;;;;;;;35.00;15.30;;;;;;;6.32;100.00;102795.47;6083195;19;20474;-71
2023/12/15 00:21:33;;;;;;;36.38;15.98;;;;;;;6.27;100.00;102799.75;6080323;19;20006;-71
2023/12/15 00:23:40;;;;;;;41.03;17.00;;;;;;;6.28;100.00;102811.94;6078878;19;20007;-72
2023/12/15 00:25:45;;;;;;;38.03;16.63;;;;;;;6.25;100.00;102819.75;6080719;19;20011;-70
2023/12/15 00:27:51;;;;;;;34.85;17.63;;;;;;;6.27;100.00;102823.25;6081562;19;20014;-70
2023/12/15 00:29:57;;;;;;;36.53;16.55;;;;;;;6.24;100.00;102825.81;6078066;19;20012;-70
2023/12/15 00:32:02;;;;;;;36.47;17.15;;;;;;;6.29;100.00;102819.81;6082150;19;20006;-71
2023/12/15 00:34:06;;;;;;;36.63;14.85;;;;;;;6.31;100.00;102823.28;6079681;19;20331;-71
2023/12/15 00:36:12;;;;;;;37.63;18.30;;;;;;;6.33;100.00;102811.13;6080922;19;20439;-72
2023/12/15 00:38:17;;;;;;;39.55;16.80;;;;;;;6.31;100.00;102811.97;6081127;19;20007;-69
2023/12/15 00:40:25;;;;;;;45.45;17.48;;;;;;;6.30;100.00;102805.00;6081101;19;20499;-70
2023/12/15 00:42:30;;;;;;;42.50;20.05;;;;;;;6.29;100.00;102806.75;6082245;19;20015;-72
2023/12/15 00:44:35;;;;;;;42.33;17.75;;;;;;;6.31;100.00;102806.75;6079790;19;20014;-71
2023/12/15 00:46:40;;;;;;;36.65;16.10;;;;;;;6.35;100.00;102806.78;6080948;19;20787;-71
2023/12/15 00:48:45;;;;;;;46.13;17.65;;;;;;;6.41;100.00;102815.53;6077633;19;20038;-70
2023/12/15 00:50:50;;;;;;;40.63;16.10;;;;;;;6.38;100.00;102809.44;6078952;19;20615;-68
2023/12/15 00:52:52;;;;;;;43.13;18.58;;;;;;;6.40;100.00;102816.38;6080468;19;20013;-69
2023/12/15 00:54:57;;;;;;;45.65;18.17;;;;;;;6.32;100.00;102814.59;6087725;19;20010;-70
2023/12/15 00:57:05;;;;;;;40.33;17.00;;;;;;;6.32;100.00;102822.44;6085395;19;20215;-69
2023/12/15 00:59:10;;;;;;;48.58;17.67;;;;;;;6.34;100.00;102825.03;6084250;19;20673;-67
2023/12/15 01:01:15;;;;;;;43.85;16.80;;;;;;;6.38;100.00;102819.88;6082525;19;20035;-70
2023/12/15 01:03:20;;;;;;;43.58;17.33;;;;;;;6.41;100.00;102821.63;6085343;19;20006;-70
2023/12/15 01:05:25;;;;;;;37.35;18.13;;;;;;;6.41;100.00;102819.03;6083562;19;20006;-71
2023/12/15 01:07:31;;;;;;;39.63;15.60;;;;;;;6.39;100.00;102831.19;6086741;19;20006;-71
2023/12/15 01:09:37;;;;;;;31.50;15.38;;;;;;;6.38;100.00;102835.53;6086891;19;20853;-71
2023/12/15 01:11:42;;;;;;;39.60;17.48;;;;;;;6.42;100.00;102825.97;6083915;19;20049;-70
2023/12/15 01:13:47;;;;;;;31.13;15.40;;;;;;;6.50;100.00;102823.44;6082571;19;20010;-70
2023/12/15 01:15:52;;;;;;;37.00;16.73;;;;;;;6.45;100.00;102817.28;6082847;19;20603;-67
2023/12/15 01:17:57;;;;;;;44.47;16.77;;;;;;;6.40;100.00;102825.13;6083373;19;20165;-67
2023/12/15 01:20:03;;;;;;;39.05;17.75;;;;;;;6.39;100.00;102831.19;6085861;19;20020;-68
2023/12/15 01:22:08;;;;;;;40.40;16.02;;;;;;;6.35;100.00;102835.50;6086255;19;20073;-72
2023/12/15 01:24:11;;;;;;;42.17;17.63;;;;;;;6.37;100.00;102835.50;6085074;19;20097;-70
2023/12/15 01:26:18;;;;;;;39.80;17.55;;;;;;;6.38;100.00;102832.06;6085523;19;20038;-70
2023/12/15 01:28:23;;;;;;;45.05;19.05;;;;;;;6.40;100.00;102827.72;6086786;19;20005;-68
2023/12/15 01:30:30;;;;;;;51.08;18.65;;;;;;;6.35;100.00;102832.03;6087190;19;20017;-70
2023/12/15 01:32:33;;;;;;;45.25;18.58;;;;;;;6.33;100.00;102844.19;6086807;19;20041;-70
2023/12/15 01:34:38;;;;;;;38.33;16.02;;;;;;;6.33;100.00;102857.25;6085499;19;20174;-70
2023/12/15 01:36:43;;;;;;;38.55;16.30;;;;;;;6.35;100.00;102847.69;6088201;19;20007;-70
2023/12/15 01:38:48;;;;;;;43.53;16.45;;;;;;;6.34;100.00;102849.41;6086800;19;20018;-70
2023/12/15 01:40:53;;;;;;;45.75;16.27;;;;;;;6.33;100.00;102841.59;6085751;19;20086;-71
2023/12/15 01:43:00;;;;;;;48.47;18.10;;;;;;;6.31;100.00;102844.16;6086383;19;20692;-69
2023/12/15 01:45:06;;;;;;;39.50;17.52;;;;;;;6.32;100.00;102851.16;6073606;19;20282;-68
2023/12/15 01:47:14;;;;;;;37.75;15.02;;;;;;;6.34;100.00;102859.00;6085145;19;20007;-68
2023/12/15 01:49:19;;;;;;;42.33;16.85;;;;;;;6.32;100.00;102860.72;6081598;19;20019;-68
2023/12/15 01:51:26;;;;;;;39.67;16.38;;;;;;;6.27;100.00;102858.06;6084306;19;20074;-70
2023/12/15 01:53:31;;;;;;;43.92;15.98;;;;;;;6.27;100.00;102868.50;6083101;19;20013;-68
2023/12/15 01:55:36;;;;;;;34.63;15.57;;;;;;;6.25;100.00;102869.34;6082870;19;20040;-68
2023/12/15 01:57:41;;;;;;;38.78;16.85;;;;;;;6.27;100.00;102873.72;6085225;19;20014;-68
2023/12/15 01:59:48;;;;;;;30.15;16.52;;;;;;;6.22;100.00;102890.22;6084672;19;20667;-68
2023/12/15 02:01:53;;;;;;;36.53;15.13;;;;;;;6.23;100.00;102889.34;6078688;19;20070;-68
2023/12/15 02:04:01;;;;;;;37.95;14.35;;;;;;;6.23;100.00;102895.44;6084928;19;20011;-68
2023/12/15 02:06:07;;;;;;;32.25;16.10;;;;;;;6.22;100.00;102901.53;6083663;19;20014;-71
2023/12/15 02:08:13;;;;;;;43.03;15.65;;;;;;;6.22;100.00;102911.09;6084142;19;20021;-71
2023/12/15 02:10:15;;;;;;;33.53;14.35;;;;;;;6.25;100.00;102919.84;6082679;19;20011;-70
2023/12/15 02:12:20;;;;;;;32.88;13.52;;;;;;;6.25;100.00;102932.88;6083766;19;20042;-71
2023/12/15 02:14:22;;;;;;;35.22;14.30;;;;;;;6.24;100.00;102925.94;6075901;19;20002;-70
2023/12/15 02:16:27;;;;;;;33.90;13.15;;;;;;;6.29;100.00;102929.47;6082360;19;20003;-71
2023/12/15 02:18:35;;;;;;;30.88;13.52;;;;;;;6.27;100.00;102935.53;6083757;19;20233;-68
2023/12/15 02:20:43;;;;;;;34.90;13.43;;;;;;;6.27;100.00;102940.75;6079926;19;20010;-68
2023/12/15 02:22:50;;;;;;;36.45;14.25;;;;;;;6.25;100.00;102947.69;6082909;19;20359;-68
2023/12/15 02:24:53;;;;;;;30.65;12.70;;;;;;;6.28;100.00;102945.09;6084232;19;20002;-67
2023/12/15 02:26:58;;;;;;;38.05;14.30;;;;;;;6.37;100.00;102950.41;6084682;19;20078;-68
2023/12/15 02:29:03;;;;;;;32.75;13.25;;;;;;;6.38;100.00;102946.97;6084700;19;20006;-68
2023/12/15 02:31:08;;;;;;;28.40;13.55;;;;;;;6.33;100.00;102948.63;6078041;19;20363;-70
2023/12/15 02:33:14;;;;;;;34.58;13.32;;;;;;;6.42;100.00;102946.09;6080468;19;20007;-70
2023/12/15 02:35:17;;;;;;;32.95;14.23;;;;;;;6.41;100.00;102954.81;6085010;19;20014;-68
2023/12/15 02:37:22;;;;;;;24.90;11.98;;;;;;;6.42;100.00;102950.47;6082071;19;20045;-68
2023/12/15 02:39:26;;;;;;;25.58;10.82;;;;;;;6.41;100.00;102954.81;6084703;19;20328;-71
2023/12/15 02:41:32;;;;;;;28.98;12.23;;;;;;;6.41;100.00;102954.81;6082344;19;20010;-70
2023/12/15 02:43:37;;;;;;;29.52;11.52;;;;;;;6.42;100.00;102953.94;6084587;19;20015;-70
2023/12/15 02:45:42;;;;;;;29.25;11.10;;;;;;;6.43;100.00;102958.34;6084379;19;20471;-68
2023/12/15 02:47:47;;;;;;;27.15;10.65;;;;;;;6.48;100.00;102964.47;6082551;19;20015;-68
2023/12/15 02:49:50;;;;;;;32.13;11.38;;;;;;;6.49;100.00;102974.06;6081953;19;20031;-68
2023/12/15 02:51:55;;;;;;;34.35;11.02;;;;;;;6.48;100.00;102972.31;6082369;19;20011;-69
2023/12/15 02:53:59;;;;;;;23.88;10.57;;;;;;;6.53;100.00;102969.72;6076878;19;20010;-67
2023/12/15 02:56:07;;;;;;;27.40;11.98;;;;;;;6.50;100.00;102974.94;6084931;19;20490;-68
2023/12/15 02:58:12;;;;;;;23.25;10.63;;;;;;;6.47;100.00;102975.75;6081796;19;20010;-68
2023/12/15 03:00:17;;;;;;;25.33;10.88;;;;;;;6.49;100.00;102976.66;6081047;19;20007;-68
2023/12/15 03:02:22;;;;;;;26.48;10.50;;;;;;;6.52;100.00;102984.53;6084103;19;20477;-69
2023/12/15 03:04:27;;;;;;;23.83;10.77;;;;;;;6.50;100.00;102982.75;6082339;19;20007;-68
2023/12/15 03:06:32;;;;;;;28.20;10.98;;;;;;;6.48;100.00;102982.75;6082180;19;21304;-70
2023/12/15 03:08:37;;;;;;;35.17;10.98;;;;;;;6.47;100.00;102986.22;6084450;19;20007;-71
2023/12/15 03:10:42;;;;;;;26.13;10.50;;;;;;;6.47;100.00;102988.81;6081863;19;20439;-71
2023/12/15 03:12:50;;;;;;;26.48;11.45;;;;;;;6.45;100.00;102985.34;6085200;19;20002;-71
2023/12/15 03:14:56;;;;;;;23.17;10.73;;;;;;;6.44;100.00;102986.19;6082135;19;20022;-71
2023/12/15 03:17:01;;;;;;;27.88;10.13;;;;;;;6.45;100.00;102990.56;6075990;19;20002;-70
2023/12/15 03:19:06;;;;;;;28.15;10.88;;;;;;;6.41;100.00;102996.59;6080933;19;20018;-72
2023/12/15 03:21:11;;;;;;;29.75;11.02;;;;;;;6.42;100.00;102995.72;6076922;19;20013;-69
2023/12/15 03:23:16;;;;;;;36.53;10.95;;;;;;;6.40;100.00;102996.56;6081401;19;20097;-69
2023/12/15 03:25:21;;;;;;;26.92;9.90;;;;;;;6.38;100.00;103007.03;6079607;19;20011;-69
2023/12/15 03:27:26;;;;;;;25.52;10.82;;;;;;;6.36;100.00;103007.00;6083420;19;20289;-69
2023/12/15 03:29:33;;;;;;;24.33;10.00;;;;;;;6.39;100.00;103003.53;6081410;19;20023;-68
2023/12/15 03:31:41;;;;;;;26.88;10.88;;;;;;;6.49;100.00;103010.63;6081480;19;20006;-71
2023/12/15 03:33:43;;;;;;;25.83;9.57;;;;;;;6.51;100.00;103000.22;6081806;19;20078;-68
2023/12/15 03:35:48;;;;;;;22.90;10.35;;;;;;;6.49;100.00;103014.97;6081350;19;20081;-68
2023/12/15 03:37:53;;;;;;;23.17;9.55;;;;;;;6.47;100.00;103012.34;6081650;19;20006;-72
2023/12/15 03:39:58;;;;;;;24.23;10.05;;;;;;;6.50;100.00;103009.78;6083009;19;20581;-68
2023/12/15 03:42:08;;;;;;;31.42;11.15;;;;;;;6.53;100.00;103008.91;6083126;19;20010;-68
2023/12/15 03:44:12;;;;;;;27.67;10.80;;;;;;;6.50;100.00;103014.09;6080578;19;20471;-70
2023/12/15 03:46:20;;;;;;;21.17;9.48;;;;;;;6.53;100.00;103016.75;6081656;19;20113;-68
2023/12/15 03:48:26;;;;;;;23.08;8.93;;;;;;;6.58;100.00;103021.19;6082494;19;20014;-68
2023/12/15 03:50:31;;;;;;;26.05;10.50;;;;;;;6.57;100.00;103019.41;6082229;19;20679;-68
2023/12/15 03:52:36;;;;;;;21.27;10.20;;;;;;;6.59;100.00;103024.66;6079193;19;20019;-69
2023/12/15 03:54:41;;;;;;;28.25;10.02;;;;;;;6.55;100.00;103025.47;6079337;19;20007;-68
2023/12/15 03:56:45;;;;;;;27.00;10.18;;;;;;;6.54;100.00;103024.63;6081126;19;20006;-71
2023/12/15 03:58:48;;;;;;;23.00;10.80;;;;;;;6.50;100.00;103025.44;6083792;19;20013;-71
2023/12/15 04:00:53;;;;;;;21.33;9.23;;;;;;;6.55;100.00;103021.13;6082181;19;20287;-70
2023/12/15 04:03:01;;;;;;;20.60;9.57;;;;;;;6.57;100.00;103037.69;6080706;19;20065;-71
2023/12/15 04:05:07;;;;;;;32.13;9.77;;;;;;;6.60;100.00;103039.47;6082285;19;19999;-71
2023/12/15 04:07:12;;;;;;;21.85;9.85;;;;;;;6.60;100.00;103040.34;6082703;19;20033;-70
2023/12/15 04:09:17;;;;;;;35.33;11.38;;;;;;;6.58;100.00;103047.31;6078855;19;20082;-70
2023/12/15 04:11:22;;;;;;;34.35;9.98;;;;;;;6.57;100.00;103056.00;6078472;19;20003;-71
2023/12/15 04:13:27;;;;;;;27.38;11.10;;;;;;;6.54;100.00;103048.13;6080001;19;20003;-73
2023/12/15 04:15:35;;;;;;;25.88;11.05;;;;;;;6.56;100.00;103049.03;6081652;19;20015;-70
2023/12/15 04:17:42;;;;;;;26.67;10.02;;;;;;;6.63;100.00;103049.09;6079346;19;20265;-71
2023/12/15 04:19:50;;;;;;;21.83;10.13;;;;;;;6.64;100.00;103053.47;6079632;19;20011;-71
2023/12/15 04:21:56;;;;;;;22.95;9.93;;;;;;;6.66;100.00;103055.25;6080067;19;20007;-68
2023/12/15 04:24:00;;;;;;;26.48;9.50;;;;;;;6.64;100.00;103056.09;6080075;19;20018;-69
2023/12/15 04:26:06;;;;;;;24.65;9.70;;;;;;;6.64;100.00;103063.91;6085521;19;20014;-69
2023/12/15 04:28:08;;;;;;;23.35;10.30;;;;;;;6.60;100.00;103061.25;6088802;19;20034;-69
2023/12/15 04:30:14;;;;;;;26.83;9.77;;;;;;;6.56;100.00;103056.88;6048237;19;20023;-69
2023/12/15 04:32:19;;;;;;;21.33;9.82;;;;;;;6.53;100.00;103056.84;6083901;19;20466;-68
2023/12/15 04:34:24;;;;;;;22.42;10.15;;;;;;;6.56;100.00;103062.09;6085314;19;20324;-68
2023/12/15 04:36:32;;;;;;;21.48;9.90;;;;;;;6.56;100.00;103069.91;6087740;19;20006;-69
2023/12/15 04:38:37;;;;;;;21.77;8.38;;;;;;;6.53;100.00;103067.28;6089377;19;20019;-70
2023/12/15 04:40:42;;;;;;;27.70;9.95;;;;;;;6.54;100.00;103075.97;6086636;19;20248;-69
2023/12/15 04:42:44;;;;;;;25.55;8.30;;;;;;;6.54;100.00;103063.78;6086749;19;20074;-69
2023/12/15 04:44:49;;;;;;;26.23;10.45;;;;;;;6.54;100.00;103066.41;6087870;19;20006;-69
2023/12/15 04:46:55;;;;;;;29.55;10.73;;;;;;;6.58;100.00;103067.31;6086132;19;20045;-68
2023/12/15 04:49:01;;;;;;;27.05;8.05;;;;;;;6.58;100.00;103077.75;6087680;19;20006;-68
2023/12/15 04:51:07;;;;;;;25.10;9.50;;;;;;;6.58;100.00;103077.75;6076416;19;20014;-68
2023/12/15 04:53:15;;;;;;;27.77;9.90;;;;;;;6.60;100.00;103091.72;6078766;19;20034;-68
2023/12/15 04:55:20;;;;;;;20.63;9.77;;;;;;;6.57;100.00;103082.13;6087409;19;20024;-67
2023/12/15 04:57:22;;;;;;;26.42;9.73;;;;;;;6.59;100.00;103085.63;6085202;19;20007;-68
2023/12/15 04:59:27;;;;;;;20.45;8.50;;;;;;;6.59;100.00;103087.38;6086280;19;20086;-68
2023/12/15 05:01:32;;;;;;;18.55;8.10;;;;;;;6.60;100.00;103087.38;6082140;19;20060;-73
2023/12/15 05:03:37;;;;;;;23.38;9.25;;;;;;;6.60;100.00;103095.22;6085413;19;20015;-70
2023/12/15 05:05:46;;;;;;;17.90;8.15;;;;;;;6.58;100.00;103102.16;6086513;19;20019;-69
2023/12/15 05:07:51;;;;;;;25.77;9.88;;;;;;;6.60;100.00;103112.63;6078667;19;20021;-69
2023/12/15 05:09:59;;;;;;;24.15;8.98;;;;;;;6.58;100.00;103107.41;6086058;19;20029;-69
2023/12/15 05:12:03;;;;;;;21.70;8.70;;;;;;;6.60;100.00;103102.16;6086528;19;20011;-68
2023/12/15 05:14:08;;;;;;;21.63;8.60;;;;;;;6.63;100.00;103106.56;6085665;19;20010;-70
2023/12/15 05:16:13;;;;;;;19.10;9.82;;;;;;;6.61;100.00;103109.16;6085643;19;20334;-71
2023/12/15 05:18:18;;;;;;;20.80;8.80;;;;;;;6.64;100.00;103118.78;6084839;19;20478;-71
2023/12/15 05:20:23;;;;;;;24.45;7.88;;;;;;;6.66;100.00;103128.41;6084352;19;20013;-69
2023/12/15 05:22:28;;;;;;;18.63;8.98;;;;;;;6.63;100.00;103137.91;6085445;19;20048;-69
2023/12/15 05:24:34;;;;;;;18.27;7.93;;;;;;;6.58;100.00;103140.47;6085821;19;20591;-69
2023/12/15 05:26:42;;;;;;;19.98;8.50;;;;;;;6.56;100.00;103135.22;6084493;19;20778;-70
2023/12/15 05:28:46;;;;;;;17.30;9.35;;;;;;;6.60;100.00;103144.84;6087727;19;20073;-69
2023/12/15 05:30:51;;;;;;;22.27;8.90;;;;;;;6.58;100.00;103146.59;6086374;19;20011;-69
2023/12/15 05:32:56;;;;;;;21.30;8.57;;;;;;;6.60;100.00;103144.84;6087067;19;20014;-68
2023/12/15 05:35:01;;;;;;;23.88;8.13;;;;;;;6.58;100.00;103140.47;6084622;19;20034;-70
2023/12/15 05:37:08;;;;;;;18.23;8.30;;;;;;;6.57;100.00;103143.94;6083066;19;20741;-71
2023/12/15 05:39:14;;;;;;;20.35;7.57;;;;;;;6.55;100.00;103138.69;6084321;19;20020;-70
2023/12/15 05:41:19;;;;;;;20.63;8.43;;;;;;;6.52;100.00;103132.56;6084752;19;20042;-71
2023/12/15 05:43:27;;;;;;;23.00;7.75;;;;;;;6.53;100.00;103132.59;6083542;19;20438;-71
2023/12/15 05:45:35;;;;;;;23.20;7.97;;;;;;;6.62;100.00;103126.59;6083966;19;20042;-70
2023/12/15 05:47:40;;;;;;;22.38;7.88;;;;;;;6.61;100.00;103127.47;6083971;19;20041;-71
2023/12/15 05:49:46;;;;;;;14.50;8.18;;;;;;;6.59;100.00;103137.88;6082152;19;20053;-71
2023/12/15 05:51:51;;;;;;;24.08;8.90;;;;;;;6.59;100.00;103139.63;6083233;19;20002;-71
2023/12/15 05:53:57;;;;;;;18.05;8.93;;;;;;;6.58;100.00;103130.00;6078282;19;20513;-71
2023/12/15 05:56:02;;;;;;;19.35;9.32;;;;;;;6.57;100.00;103141.31;6086788;19;20037;-72
2023/12/15 05:58:07;;;;;;;18.48;7.32;;;;;;;6.54;100.00;103144.78;6083914;19;20019;-70
2023/12/15 06:00:16;;;;;;;29.27;9.02;;;;;;;6.55;100.00;103150.88;6084006;19;20377;-71
2023/12/15 06:02:20;;;;;;;20.42;7.22;;;;;;;6.49;100.00;103164.72;6086815;19;20015;-72
2023/12/15 06:04:28;;;;;;;20.73;8.05;;;;;;;6.55;100.00;103162.19;6087453;19;20045;-71
2023/12/15 06:06:33;;;;;;;21.30;8.23;;;;;;;6.53;100.00;103161.31;6083361;19;20464;-70
2023/12/15 06:08:38;;;;;;;19.98;7.38;;;;;;;6.53;100.00;103160.41;6084816;19;20006;-72
2023/12/15 06:10:44;;;;;;;21.73;7.88;;;;;;;6.52;100.00;103161.28;6086045;19;20581;-70
2023/12/15 06:12:49;;;;;;;20.50;8.60;;;;;;;6.51;100.00;103167.38;6080952;19;20017;-71
2023/12/15 06:14:53;;;;;;;28.02;9.15;;;;;;;6.52;100.00;103167.38;6084707;19;20023;-69
2023/12/15 06:17:05;;;;;;;23.13;9.00;;;;;;;6.50;100.00;103173.44;6084164;19;20549;-68
2023/12/15 06:19:11;;;;;;;25.37;8.30;;;;;;;6.52;100.00;103179.56;6084037;19;20006;-69
2023/12/15 06:21:23;;;;;;;24.13;8.75;;;;;;;6.49;100.00;103179.53;6075520;19;20081;-69
2023/12/15 06:23:28;;;;;;;19.45;7.65;;;;;;;6.49;100.00;103187.38;6083141;19;20062;-70
2023/12/15 06:25:34;;;;;;;23.85;8.05;;;;;;;6.49;100.00;103180.41;6085228;19;20377;-72
2023/12/15 06:27:36;;;;;;;18.60;7.93;;;;;;;6.54;100.00;103175.25;6082681;19;20013;-70
2023/12/15 06:29:42;;;;;;;17.10;7.47;;;;;;;6.54;100.00;103176.13;6071527;19;20621;-68
2023/12/15 06:31:49;;;;;;;28.73;7.75;;;;;;;6.56;100.00;103177.03;6070005;19;20429;-69
2023/12/15 06:33:56;;;;;;;20.42;7.05;;;;;;;6.56;100.00;103173.53;6079272;19;20620;-69
2023/12/15 06:36:02;;;;;;;19.10;6.97;;;;;;;6.54;100.00;103181.34;6082378;19;20482;-71
2023/12/15 06:38:06;;;;;;;22.33;7.60;;;;;;;6.52;100.00;103188.28;6079888;19;20007;-71
2023/12/15 06:40:12;;;;;;;26.05;7.80;;;;;;;6.58;100.00;103193.59;6074666;19;20017;-71
2023/12/15 06:42:17;;;;;;;18.15;8.13;;;;;;;6.60;100.00;103196.22;6078053;19;20395;-71
2023/12/15 06:44:22;;;;;;;22.65;7.85;;;;;;;6.58;100.00;103206.66;6080459;19;20011;-72
2023/12/15 06:46:27;;;;;;;23.65;7.38;;;;;;;6.65;100.00;103209.34;6079212;19;20103;-70
2023/12/15 06:48:33;;;;;;;19.85;8.35;;;;;;;6.66;100.00;103226.78;6078220;19;20077;-68
2023/12/15 06:50:41;;;;;;;21.23;7.35;;;;;;;6.71;100.00;103230.34;6079471;19;20040;-68
2023/12/15 06:52:49;;;;;;;16.85;8.05;;;;;;;6.66;100.00;103235.53;6077286;19;20021;-69
2023/12/15 06:54:54;;;;;;;16.58;6.72;;;;;;;6.69;100.00;103226.81;6080541;19;20334;-68
2023/12/15 06:56:56;;;;;;;20.60;8.20;;;;;;;6.70;100.00;103220.75;6077029;19;20316;-69
2023/12/15 06:59:01;;;;;;;15.63;6.57;;;;;;;6.69;100.00;103229.44;6078531;19;20275;-71
2023/12/15 07:01:07;;;;;;;30.17;8.57;;;;;;;6.69;100.00;103226.81;6082233;19;20073;-69
2023/12/15 07:03:12;;;;;;;29.42;8.57;;;;;;;6.69;100.00;103229.44;6080664;19;20015;-69
2023/12/15 07:05:17;;;;;;;18.65;7.05;;;;;;;6.68;100.00;103241.63;6080674;19;20011;-67
2023/12/15 07:07:25;;;;;;;22.15;7.22;;;;;;;6.68;100.00;103254.69;6081305;19;20007;-71
2023/12/15 07:09:27;;;;;;;17.92;7.65;;;;;;;6.68;100.00;103249.47;6081045;19;20010;-72
2023/12/15 07:11:39;;;;;;;22.98;7.30;;;;;;;6.67;100.00;103246.84;6080671;19;20031;-71
2023/12/15 07:13:44;;;;;;;26.10;8.43;;;;;;;6.65;100.00;103245.94;6082113;19;20015;-71
2023/12/15 07:15:50;;;;;;;31.08;8.85;;;;;;;6.64;100.00;103242.44;6080799;19;20014;-71
2023/12/15 07:17:55;;;;;;;23.73;7.68;;;;;;;6.62;100.00;103241.53;6083813;19;20037;-68
2023/12/15 07:20:01;;;;;;;26.17;6.93;;;;;;;6.60;100.00;103240.63;6081019;19;20087;-70
2023/12/15 07:22:06;;;;;;;22.90;7.65;;;;;;;6.59;100.00;103247.59;6078403;19;20029;-72
2023/12/15 07:24:14;;;;;;;31.90;8.80;;;;;;;6.60;100.00;103243.25;6081244;19;20014;-72
2023/12/15 07:26:19;;;;;;;23.33;8.02;;;;;;;6.59;100.00;103251.94;6081954;19;20316;-71
2023/12/15 07:28:24;;;;;;;15.98;6.85;;;;;;;6.59;100.00;103262.41;6081403;19;20090;-73
2023/12/15 07:30:30;;;;;;;19.38;6.60;;;;;;;6.57;100.00;103251.03;6082436;19;20018;-70
2023/12/15 07:32:35;;;;;;;16.50;6.47;;;;;;;6.55;100.00;103258.84;6080741;19;20010;-72
2023/12/15 07:34:40;;;;;;;19.35;7.22;;;;;;;6.57;100.00;103253.66;6080002;19;20766;-69
2023/12/15 07:36:47;;;;;;;16.38;6.25;;;;;;;6.54;100.00;103257.09;6080805;19;20033;-68
2023/12/15 07:38:52;;;;;;;18.10;7.43;;;;;;;6.52;100.00;103258.81;6084345;19;20578;-70
2023/12/15 07:40:59;;;;;;;14.48;6.43;;;;;;;6.51;100.00;103269.25;6081337;19;20723;-70
2023/12/15 07:43:03;;;;;;;27.65;8.27;;;;;;;6.50;100.00;103268.38;6082121;19;20045;-72
2023/12/15 07:45:09;;;;;;;23.42;7.18;;;;;;;6.51;100.00;103272.72;6080662;19;20971;-70
2023/12/15 07:47:14;;;;;;;18.40;6.03;;;;;;;6.52;100.00;103266.63;6075900;19;20011;-71
2023/12/15 07:49:19;;;;;;;17.73;6.15;;;;;;;6.50;100.00;103276.22;6076559;19;20033;-70
2023/12/15 07:51:25;;;;;;;15.68;6.03;;;;;;;6.49;100.00;103270.94;6079390;19;20002;-70
2023/12/15 07:53:30;;;;;;;13.02;6.30;;;;;;;6.49;100.00;103292.72;6075385;19;20044;-71
2023/12/15 07:55:35;;;;;;;14.20;5.43;;;;;;;6.53;100.00;103305.00;6079869;19;20392;-71
2023/12/15 07:57:43;;;;;;;22.17;7.65;;;;;;;6.53;100.00;103301.47;6084862;19;20008;-69
2023/12/15 07:59:48;;;;;;;22.92;6.65;;;;;;;6.55;100.00;103307.59;6079059;19;20035;-71
2023/12/15 08:01:55;;;;;;;23.85;7.13;;;;;;;6.54;100.00;103313.69;6077411;19;20830;-71
2023/12/15 08:04:00;;;;;;;16.98;6.30;;;;;;;6.54;100.00;103316.31;6077411;19;20002;-72
2023/12/15 08:06:03;;;;;;;17.08;6.65;;;;;;;6.54;100.00;103318.94;6080800;19;20011;-72
2023/12/15 08:08:08;;;;;;;13.82;6.95;;;;;;;6.54;100.00;103325.03;6085465;19;20018;-69
2023/12/15 08:10:13;;;;;;;16.45;7.00;;;;;;;6.58;100.00;103324.22;6081449;19;20417;-69
2023/12/15 08:12:21;;;;;;;20.38;6.50;;;;;;;6.56;100.00;103328.53;6080657;19;20011;-69
2023/12/15 08:14:28;;;;;;;15.93;6.88;;;;;;;6.57;100.00;103329.41;6078632;19;20010;-69
2023/12/15 08:16:34;;;;;;;14.00;6.20;;;;;;;6.62;100.00;103329.50;6076741;19;20719;-70
2023/12/15 08:18:37;;;;;;;15.10;5.97;;;;;;;6.66;100.00;103328.69;6078742;19;20713;-71
2023/12/15 08:20:42;;;;;;;25.42;6.57;;;;;;;6.69;100.00;103339.16;6081928;19;20372;-71
2023/12/15 08:22:47;;;;;;;14.18;5.75;;;;;;;6.70;100.00;103338.34;6078777;19;20041;-70
2023/12/15 08:24:52;;;;;;;13.73;7.03;;;;;;;6.69;100.00;103340.06;6080347;19;20669;-70
2023/12/15 08:26:54;;;;;;;18.80;5.97;;;;;;;6.74;100.00;103340.13;6077276;19;20017;-71
2023/12/15 08:28:59;;;;;;;21.30;5.50;;;;;;;6.73;100.00;103347.09;6079446;19;20013;-73
2023/12/15 08:31:07;;;;;;;17.38;5.80;;;;;;;6.75;100.00;103357.59;6078086;19;20074;-72
2023/12/15 08:33:12;;;;;;;21.83;6.30;;;;;;;6.75;100.00;103353.22;6075492;19;20015;-74
2023/12/15 08:35:17;;;;;;;18.67;7.13;;;;;;;6.77;100.00;103358.50;6075778;19;20625;-72
2023/12/15 08:37:22;;;;;;;20.77;6.00;;;;;;;6.82;100.00;103362.94;6069697;19;20597;-70
2023/12/15 08:39:27;;;;;;;12.27;5.88;;;;;;;6.81;100.00;103357.66;6076116;19;20417;-68
2023/12/15 08:41:32;;;;;;;12.95;5.65;;;;;;;6.87;100.00;103367.34;6075116;19;20007;-68
2023/12/15 08:43:37;;;;;;;18.67;5.93;;;;;;;6.87;100.00;103368.19;6074278;19;20030;-68
2023/12/15 08:45:42;;;;;;;14.82;7.15;;;;;;;6.90;100.00;103369.97;6079042;19;20094;-68
2023/12/15 08:47:50;;;;;;;18.15;6.43;;;;;;;6.91;100.00;103375.25;6077572;19;20803;-68
2023/12/15 08:49:55;;;;;;;21.67;6.00;;;;;;;6.91;100.00;103377.88;6078801;19;20011;-73
2023/12/15 08:52:00;;;;;;;14.40;5.63;;;;;;;6.94;100.00;103379.66;6078252;19;20046;-71
2023/12/15 08:54:03;;;;;;;12.57;5.47;;;;;;;6.95;100.00;103384.00;6078219;19;20006;-72
2023/12/15 08:56:08;;;;;;;12.52;4.65;;;;;;;6.95;100.00;103387.53;6078640;19;20427;-72
2023/12/15 08:58:13;;;;;;;17.40;5.38;;;;;;;6.95;100.00;103389.25;6079125;19;20010;-72
2023/12/15 09:00:15;;;;;;;23.15;5.82;;;;;;;6.96;100.00;103388.41;6077274;19;20435;-71
2023/12/15 09:02:20;;;;;;;;;;;;;;;6.97;100.00;103390.16;6080508;19;20277;-68
2023/12/15 09:04:28;;;;;;;19.55;6.15;;;;;;;7.00;100.00;103395.41;6076952;19;19982;-71
2023/12/15 09:06:33;;;;;;;17.48;5.95;;;;;;;7.02;100.00;103398.94;6078694;19;20041;-68
2023/12/15 09:08:46;;;;;;;14.02;5.53;;;;;;;7.03;100.00;103398.97;6078451;19;20011;-69
2023/12/15 09:10:51;;;;;;;18.98;6.13;;;;;;;7.05;100.00;103404.22;6077257;19;20006;-72
2023/12/15 09:12:53;;;;;;;14.18;5.25;;;;;;;7.07;100.00;103415.59;6081957;19;20355;-71
2023/12/15 09:14:59;;;;;;;13.45;5.38;;;;;;;7.12;100.00;103413.91;6085182;19;20033;-68
2023/12/15 09:17:11;;;;;;;14.90;5.68;;;;;;;7.13;100.00;103422.63;6085654;19;20118;-69
2023/12/15 09:19:16;;;;;;;16.55;4.85;;;;;;;7.13;100.00;103423.50;6084495;19;20002;-68
2023/12/15 09:21:24;;;;;;;19.15;6.00;;;;;;;7.16;100.00;103430.53;6084204;19;20021;-69
2023/12/15 09:23:29;;;;;;;12.15;5.32;;;;;;;7.19;100.00;103430.59;6083230;19;20704;-69
2023/12/15 09:25:35;;;;;;;22.50;5.50;;;;;;;7.22;100.00;103443.72;6105363;19;20463;-73
2023/12/15 09:27:40;;;;;;;13.95;4.68;;;;;;;7.21;100.00;103447.16;6066934;19;20045;-72
2023/12/15 09:29:44;;;;;;;14.48;4.80;;;;;;;7.22;100.00;103448.94;6083450;19;20003;-69
2023/12/15 09:31:49;;;;;;;14.05;4.43;;;;;;;7.24;100.00;103458.56;6084800;19;20379;-70
2023/12/15 09:33:54;;;;;;;13.60;5.20;;;;;;;7.25;100.00;103454.22;6084575;19;20002;-69